createdAt,value
2023-04-12T05:18:48.447Z,16.40
2023-04-12T05:19:52.185Z,16.40
2023-04-12T05:20:55.038Z,16.50
2023-04-12T05:21:58.310Z,17.00
2023-04-12T05:23:01.275Z,17.10
2023-04-12T05:24:04.299Z,19.30
2023-04-12T05:25:08.942Z,15.40
2023-04-12T05:26:16.197Z,15.70
2023-04-12T05:27:22.399Z,15.50
2023-04-12T05:28:25.831Z,15.50
2023-04-12T05:29:29.334Z,16.60
2023-04-12T05:30:32.656Z,14.60
2023-04-12T05:31:36.604Z,15.80
2023-04-12T05:32:41.614Z,14.80
2023-04-12T05:33:45.216Z,15.70
2023-04-12T05:34:49.122Z,14.60
2023-04-12T05:35:52.753Z,15.20
2023-04-12T05:36:55.732Z,14.30
2023-04-12T05:37:59.174Z,13.80
2023-04-12T05:39:02.114Z,12.30
2023-04-12T05:40:09.917Z,12.50
2023-04-12T05:41:13.325Z,13.20
2023-04-12T05:42:16.656Z,12.80
2023-04-12T05:43:20.037Z,12.20
2023-04-12T05:44:23.039Z,12.10
2023-04-12T05:45:26.328Z,12.00
2023-04-12T05:46:29.400Z,12.50
2023-04-12T05:47:32.398Z,13.90
2023-04-12T05:48:35.322Z,13.20
2023-04-12T05:49:38.422Z,14.80
2023-04-12T05:50:51.652Z,14.20
2023-04-12T05:51:54.593Z,11.90
2023-04-12T05:53:00.533Z,12.30
2023-04-12T05:54:08.278Z,13.30
2023-04-12T05:55:12.185Z,12.10
2023-04-12T05:56:17.558Z,12.80
2023-04-12T05:57:21.039Z,15.70
2023-04-12T05:58:24.783Z,10.70
2023-04-12T05:59:29.655Z,12.20
2023-04-12T06:00:33.252Z,12.10
2023-04-12T06:01:36.347Z,12.30
2023-04-12T06:02:40.269Z,12.70
2023-04-12T06:03:43.737Z,12.10
2023-04-12T06:04:51.132Z,13.40
2023-04-12T06:05:56.066Z,14.20
2023-04-12T06:07:00.671Z,13.10
2023-04-12T06:08:05.421Z,12.40
2023-04-12T06:09:10.020Z,11.70
2023-04-12T06:10:14.907Z,12.30
2023-04-12T06:11:17.954Z,10.50
2023-04-12T06:12:20.884Z,10.20
2023-04-12T06:13:24.134Z,12.90
2023-04-12T06:14:27.106Z,11.40
2023-04-12T06:15:32.099Z,10.50
2023-04-12T06:16:35.074Z,11.40
2023-04-12T06:17:38.977Z,10.30
2023-04-12T06:18:42.154Z,12.50
2023-04-12T06:19:45.303Z,11.30
2023-04-12T06:20:48.252Z,10.80
2023-04-12T06:21:51.690Z,9.60
2023-04-12T06:22:56.014Z,10.90
2023-04-12T06:23:59.028Z,10.80
2023-04-12T06:25:01.985Z,10.10
2023-04-12T06:26:05.764Z,10.50
2023-04-12T06:27:09.246Z,9.40
2023-04-12T06:28:12.122Z,9.90
2023-04-12T06:29:20.832Z,11.70
2023-04-12T06:30:23.736Z,10.80
2023-04-12T06:31:29.810Z,10.30
2023-04-12T06:32:32.955Z,10.50
2023-04-12T06:33:37.025Z,12.20
2023-04-12T06:34:44.199Z,11.60
2023-04-12T06:35:50.649Z,11.70
2023-04-12T06:36:53.581Z,11.70
2023-04-12T06:37:56.419Z,11.50
2023-04-12T06:38:59.449Z,12.00
2023-04-12T06:40:02.423Z,13.40
2023-04-12T06:41:05.997Z,13.10
2023-04-12T06:42:08.813Z,12.00
2023-04-12T06:43:19.156Z,12.40
2023-04-12T06:44:22.021Z,13.40
2023-04-12T06:45:24.884Z,14.30
2023-04-12T06:46:28.906Z,14.00
2023-04-12T06:47:32.713Z,14.00
2023-04-12T06:48:35.699Z,13.80
2023-04-12T06:49:39.214Z,14.10
2023-04-12T06:50:41.987Z,15.10
2023-04-12T06:51:44.995Z,13.70
2023-04-12T06:52:48.831Z,14.60
2023-04-12T06:53:51.660Z,15.10
2023-04-12T06:54:57.036Z,14.30
2023-04-12T06:56:04.117Z,13.60
2023-04-12T06:57:13.285Z,14.40
2023-04-12T06:58:16.173Z,14.50
2023-04-12T06:59:18.984Z,15.90
2023-04-12T07:00:22.502Z,15.40
2023-04-12T07:01:25.590Z,13.60
2023-04-12T07:02:28.581Z,13.60
2023-04-12T07:03:33.438Z,13.20
2023-04-12T07:04:36.671Z,13.40
2023-04-12T07:05:39.947Z,14.10
2023-04-12T07:06:42.937Z,14.20
2023-04-12T07:07:45.907Z,12.30
2023-04-12T07:08:49.618Z,12.60
2023-04-12T07:09:53.154Z,11.90
2023-04-12T07:10:56.161Z,12.20
2023-04-12T07:12:01.150Z,13.30
2023-04-12T07:13:07.204Z,12.80
2023-04-12T07:14:09.977Z,13.10
2023-04-12T07:15:12.762Z,12.70
2023-04-12T07:16:15.739Z,13.20
2023-04-12T07:17:19.099Z,13.60
2023-04-12T07:18:22.140Z,13.10
2023-04-12T07:19:25.063Z,11.80
2023-04-12T07:20:27.887Z,12.70
2023-04-12T07:21:30.778Z,12.50
2023-04-12T07:22:33.820Z,12.60
2023-04-12T07:23:36.799Z,12.30
2023-04-12T07:24:39.796Z,13.10
2023-04-12T07:25:42.666Z,12.00
2023-04-12T07:26:45.538Z,13.20
2023-04-12T07:27:49.903Z,12.70
2023-04-12T07:28:54.916Z,12.60
2023-04-12T07:29:58.861Z,12.90
2023-04-12T07:31:04.759Z,12.90
2023-04-12T07:32:10.894Z,12.60
2023-04-12T07:33:19.702Z,12.20
2023-04-12T07:34:24.331Z,14.00
2023-04-12T07:35:27.417Z,12.60
2023-04-12T07:36:31.357Z,14.50
2023-04-12T07:37:34.228Z,12.70
2023-04-12T07:38:37.048Z,13.50
2023-04-12T07:39:41.016Z,12.50
2023-04-12T07:40:44.030Z,13.10
2023-04-12T07:41:48.400Z,12.90
2023-04-12T07:42:51.225Z,13.30
2023-04-12T07:43:54.084Z,14.40
2023-04-12T07:44:56.973Z,13.80
2023-04-12T07:45:59.898Z,13.20
2023-04-12T07:47:02.746Z,13.30
2023-04-12T07:48:06.819Z,12.70
2023-04-12T07:49:10.734Z,13.70
2023-04-12T07:50:13.974Z,13.40
2023-04-12T07:51:16.789Z,13.70
2023-04-12T07:52:19.593Z,13.50
2023-04-12T07:53:26.248Z,12.60
2023-04-12T07:54:29.272Z,14.90
2023-04-12T07:55:32.060Z,13.10
2023-04-12T07:56:36.173Z,13.50
2023-04-12T07:57:38.990Z,15.40
2023-04-12T07:58:41.825Z,14.20
2023-04-12T07:59:44.725Z,15.10
2023-04-12T08:00:48.445Z,13.80
2023-04-12T08:01:52.592Z,15.60
2023-04-12T08:02:57.071Z,14.10
2023-04-12T08:04:00.558Z,15.30
2023-04-12T08:05:04.773Z,14.70
2023-04-12T08:06:08.624Z,15.10
2023-04-12T08:07:11.706Z,15.70
2023-04-12T08:08:14.597Z,14.80
2023-04-12T08:09:17.391Z,15.70
2023-04-12T08:10:20.399Z,17.10
2023-04-12T08:11:23.300Z,15.60
2023-04-12T08:12:26.231Z,15.40
2023-04-12T08:13:29.026Z,15.20
2023-04-12T08:14:31.869Z,14.50
2023-04-12T08:15:34.914Z,15.80
2023-04-12T08:16:37.863Z,14.80
2023-04-12T08:17:43.919Z,14.30
2023-04-12T08:18:46.926Z,14.30
2023-04-12T08:19:49.963Z,13.70
2023-04-12T08:20:53.311Z,13.50
2023-04-12T08:21:56.830Z,13.70
2023-04-12T08:22:59.913Z,14.10
2023-04-12T08:24:03.084Z,14.80
2023-04-12T08:25:06.819Z,14.10
2023-04-12T08:26:09.980Z,14.00
2023-04-12T08:27:13.956Z,14.70
2023-04-12T08:28:17.026Z,14.40
2023-04-12T08:29:19.925Z,15.50
2023-04-12T08:30:27.031Z,15.90
2023-04-12T08:31:30.389Z,14.90
2023-04-12T08:32:50.857Z,15.40
2023-04-12T08:33:53.910Z,16.40
2023-04-12T08:34:56.879Z,15.50
2023-04-12T08:36:00.256Z,14.90
2023-04-12T08:37:03.336Z,15.10
2023-04-12T08:38:07.968Z,14.40
2023-04-12T08:39:11.224Z,15.10
2023-04-12T08:40:14.485Z,14.40
2023-04-12T08:41:18.383Z,15.10
2023-04-12T08:42:22.230Z,13.70
2023-04-12T08:43:29.142Z,12.90
2023-04-12T08:44:37.033Z,14.00
2023-04-12T08:45:40.004Z,14.30
2023-04-12T08:46:44.169Z,14.20
2023-04-12T08:47:47.166Z,13.60
2023-04-12T08:48:54.231Z,14.50
2023-04-12T08:49:57.395Z,16.10
2023-04-12T08:51:00.600Z,14.90
2023-04-12T08:52:08.384Z,15.10
2023-04-12T08:53:11.860Z,14.70
2023-04-12T08:54:16.009Z,15.30
2023-04-12T08:55:18.926Z,16.30
2023-04-12T08:56:23.511Z,15.30
2023-04-12T08:57:27.071Z,14.80
2023-04-12T08:58:31.308Z,15.70
2023-04-12T08:59:39.263Z,15.50
2023-04-12T09:00:42.954Z,14.70
2023-04-12T09:01:46.174Z,14.00
2023-04-12T09:02:49.708Z,14.20
2023-04-12T09:03:52.861Z,15.20
2023-04-12T09:04:56.165Z,12.80
2023-04-12T09:06:03.344Z,13.90
2023-04-12T09:07:07.039Z,13.10
2023-04-12T09:08:10.271Z,15.00
2023-04-12T09:09:13.171Z,13.70
2023-04-12T09:10:35.220Z,13.80
2023-04-12T09:11:38.947Z,14.20
2023-04-12T09:12:47.906Z,13.50
2023-04-12T09:13:51.383Z,14.70
2023-04-12T09:15:12.839Z,14.60
2023-04-12T09:16:17.227Z,14.70
2023-04-12T09:17:27.903Z,15.20
2023-04-12T09:18:30.990Z,15.30
2023-04-12T09:19:36.071Z,13.20
2023-04-12T09:20:39.324Z,14.90
2023-04-12T09:21:57.778Z,13.90
2023-04-12T09:23:02.790Z,14.20
2023-04-12T09:24:14.852Z,14.70
2023-04-12T09:25:18.524Z,14.70
2023-04-12T09:26:31.632Z,13.60
2023-04-12T09:27:52.558Z,11.40
2023-04-12T09:28:55.440Z,13.90
2023-04-12T09:30:10.760Z,15.50
2023-04-12T09:31:19.370Z,12.60
2023-04-12T09:32:27.505Z,12.60
2023-04-12T09:33:48.531Z,12.20
2023-04-12T09:35:00.564Z,15.20
2023-04-12T09:36:13.536Z,13.40
2023-04-12T09:37:17.195Z,11.80
2023-04-12T09:38:20.582Z,13.10
2023-04-12T09:39:42.210Z,12.40
2023-04-12T09:40:45.199Z,13.20
2023-04-12T09:41:48.221Z,11.80
2023-04-12T09:42:56.261Z,12.80
2023-04-12T09:44:00.503Z,13.10
2023-04-12T09:45:24.398Z,13.40
2023-04-12T09:46:27.868Z,14.10
2023-04-12T09:47:39.638Z,11.00
2023-04-12T09:48:50.284Z,12.70
2023-04-12T09:49:53.252Z,11.40
2023-04-12T09:51:00.293Z,12.20
2023-04-12T09:52:03.658Z,11.30
2023-04-12T09:53:17.280Z,13.90
2023-04-12T09:54:20.962Z,14.80
2023-04-12T09:55:25.834Z,14.20
2023-04-12T09:56:32.375Z,13.30
2023-04-12T09:57:39.857Z,13.40
2023-04-12T09:58:44.681Z,11.90
2023-04-12T09:59:51.551Z,12.00
2023-04-12T10:00:57.011Z,11.60
2023-04-12T10:02:00.701Z,11.20
2023-04-12T10:03:05.231Z,12.10
2023-04-12T10:04:09.981Z,12.10
2023-04-12T10:05:16.173Z,12.10
2023-04-12T10:06:20.572Z,12.60
2023-04-12T10:07:23.739Z,11.90
2023-04-12T10:08:27.170Z,13.30
2023-04-12T10:09:30.211Z,12.50
2023-04-12T10:10:33.509Z,12.80
2023-04-12T10:11:40.606Z,12.20
2023-04-12T10:12:46.535Z,11.60
2023-04-12T10:13:52.288Z,10.40
2023-04-12T10:14:55.474Z,10.50
2023-04-12T10:16:01.084Z,11.80
2023-04-12T10:17:05.698Z,12.00
2023-04-12T10:18:11.391Z,12.70
2023-04-12T10:19:15.076Z,14.00
2023-04-12T10:20:19.593Z,13.70
2023-04-12T10:21:23.594Z,12.60
2023-04-12T10:22:27.165Z,12.70
2023-04-12T10:23:33.002Z,14.30
2023-04-12T10:24:38.648Z,12.50
2023-04-12T10:25:45.036Z,12.60
2023-04-12T10:26:50.503Z,13.30
2023-04-12T10:27:53.804Z,13.30
2023-04-12T10:29:24.512Z,12.00
2023-04-12T10:30:30.091Z,13.30
2023-04-12T10:31:34.352Z,14.70
2023-04-12T10:32:37.736Z,16.70
2023-04-12T10:33:42.938Z,16.10
2023-04-12T10:34:51.067Z,14.00
2023-04-12T10:36:06.925Z,14.20
2023-04-12T10:37:10.244Z,15.10
2023-04-12T10:38:13.169Z,16.00
2023-04-12T10:39:16.413Z,16.10
2023-04-12T10:40:19.661Z,15.00
2023-04-12T10:41:22.889Z,14.70
2023-04-12T10:42:29.784Z,15.90
2023-04-12T10:43:36.332Z,15.80
2023-04-12T10:44:39.860Z,15.10
2023-04-12T10:45:43.178Z,15.20
2023-04-12T10:46:46.463Z,16.70
2023-04-12T10:47:49.520Z,15.80
2023-04-12T10:48:53.884Z,17.40
2023-04-12T10:50:30.225Z,15.60
2023-04-12T10:51:37.791Z,15.40
2023-04-12T10:53:09.190Z,14.10
2023-04-12T10:54:12.472Z,14.30
2023-04-12T10:55:28.227Z,16.10
2023-04-12T10:56:34.044Z,14.70
2023-04-12T10:57:43.692Z,15.20
2023-04-12T10:58:49.797Z,15.40
2023-04-12T10:59:59.593Z,17.00
2023-04-12T11:01:11.959Z,16.10
2023-04-12T11:02:16.731Z,14.90
2023-04-12T11:03:28.980Z,15.40
2023-04-12T11:04:32.407Z,16.00
2023-04-12T11:06:12.787Z,14.50
2023-04-12T11:07:43.911Z,12.90
2023-04-12T11:10:20.029Z,19.40
2023-04-12T11:11:27.392Z,13.40
2023-04-12T11:12:31.042Z,13.50
2023-04-12T11:13:38.782Z,14.60
2023-04-12T11:14:46.746Z,15.90
2023-04-12T11:15:56.518Z,18.50
2023-04-12T11:17:06.135Z,16.40
2023-04-12T11:18:09.486Z,20.80
2023-04-12T11:19:13.166Z,15.20
2023-04-12T11:20:16.474Z,14.70
2023-04-12T11:21:20.053Z,14.20
2023-04-12T11:22:26.118Z,14.80
2023-04-12T11:23:29.584Z,14.40
2023-04-12T11:24:33.706Z,15.00
2023-04-12T11:25:37.468Z,14.20
2023-04-12T11:26:41.050Z,15.60
2023-04-12T11:27:54.912Z,15.90
2023-04-12T11:28:59.456Z,13.60
2023-04-12T11:30:03.014Z,14.20
2023-04-12T11:31:07.555Z,12.90
2023-04-12T11:32:14.159Z,12.00
2023-04-12T11:33:32.321Z,10.90
2023-04-12T11:34:36.800Z,11.30
2023-04-12T11:35:43.780Z,12.30
2023-04-12T11:36:48.171Z,12.10
2023-04-12T11:37:51.354Z,13.60
2023-04-12T11:38:57.155Z,13.20
2023-04-12T11:40:00.553Z,15.80
2023-04-12T11:41:07.112Z,13.30
2023-04-12T11:42:15.907Z,12.00
2023-04-12T11:43:20.675Z,14.10
2023-04-12T11:44:24.408Z,14.70
2023-04-12T11:45:29.455Z,15.10
2023-04-12T11:46:35.971Z,13.30
2023-04-12T11:47:43.712Z,14.40
2023-04-12T11:48:47.253Z,13.20
2023-04-12T11:49:53.285Z,15.30
2023-04-12T11:51:10.324Z,15.30
2023-04-12T11:52:16.107Z,14.80
2023-04-12T11:53:19.743Z,17.50
2023-04-12T11:54:29.787Z,15.70
2023-04-12T11:55:32.851Z,19.30
2023-04-12T11:56:37.665Z,17.30
2023-04-12T11:57:40.898Z,13.30
2023-04-12T11:58:47.913Z,13.70
2023-04-12T11:59:51.217Z,18.10
2023-04-12T12:00:57.468Z,15.30
2023-04-12T12:02:13.836Z,17.20
2023-04-12T12:03:25.588Z,20.30
2023-04-12T12:04:30.576Z,16.30
2023-04-12T12:05:37.463Z,26.20
2023-04-12T12:06:41.445Z,19.10
2023-04-12T12:07:44.676Z,15.70
2023-04-12T12:08:51.684Z,16.80
2023-04-12T12:09:55.487Z,16.00
2023-04-12T12:11:07.313Z,14.90
2023-04-12T12:12:12.812Z,13.90
2023-04-12T12:13:16.077Z,18.00
2023-04-12T12:14:23.566Z,14.70
2023-04-12T12:15:32.945Z,16.90
2023-04-12T12:16:36.431Z,14.80
2023-04-12T12:17:40.150Z,12.60
2023-04-12T12:18:44.727Z,14.40
2023-04-12T12:19:48.516Z,14.40
2023-04-12T12:20:51.660Z,16.60
2023-04-12T12:21:55.187Z,20.10
2023-04-12T12:22:58.356Z,20.60
2023-04-12T12:24:02.373Z,20.40
2023-04-12T12:25:06.887Z,19.50
2023-04-12T12:26:18.877Z,15.50
2023-04-12T12:27:24.808Z,16.40
2023-04-12T12:28:27.807Z,19.10
2023-04-12T12:29:38.352Z,17.00
2023-04-12T12:31:50.511Z,13.60
2023-04-12T12:32:53.628Z,15.10
2023-04-12T12:33:58.544Z,15.40
2023-04-12T12:35:02.048Z,14.50
2023-04-12T12:36:06.801Z,15.80
2023-04-12T12:37:13.680Z,14.20
2023-04-12T12:38:16.578Z,18.80
2023-04-12T12:39:19.841Z,17.20
2023-04-12T12:40:32.511Z,17.50
2023-04-12T12:41:36.599Z,16.50
2023-04-12T12:42:54.783Z,18.60
2023-04-12T12:43:58.320Z,20.10
2023-04-12T12:45:04.682Z,18.60
2023-04-12T12:46:07.906Z,19.70
2023-04-12T12:47:14.332Z,19.10
2023-04-12T12:48:21.100Z,18.10
2023-04-12T12:49:24.327Z,19.60
2023-04-12T12:50:29.539Z,19.10
2023-04-12T12:51:33.301Z,17.80
2023-04-12T12:52:36.454Z,18.60
2023-04-12T12:53:40.970Z,18.60
2023-04-12T12:54:44.033Z,18.40
2023-04-12T12:55:47.392Z,17.70
2023-04-12T12:56:50.478Z,18.20
2023-04-12T12:58:07.265Z,17.10
2023-04-12T12:59:11.793Z,16.70
2023-04-12T13:00:16.407Z,17.40
2023-04-12T13:01:19.518Z,18.00
2023-04-12T13:02:22.814Z,18.20
2023-04-12T13:03:26.120Z,18.80
2023-04-12T13:04:29.952Z,18.50
2023-04-12T13:05:33.190Z,17.00
2023-04-12T13:06:36.206Z,18.90
2023-04-12T13:07:39.498Z,18.30
2023-04-12T13:08:42.879Z,18.10
2023-04-12T13:09:46.610Z,18.70
2023-04-12T13:10:50.702Z,18.10
2023-04-12T13:11:53.845Z,18.10
2023-04-12T13:12:56.827Z,18.80
2023-04-12T13:13:59.886Z,18.20
2023-04-12T13:15:20.127Z,17.30
2023-04-12T13:16:26.994Z,18.60
2023-04-12T13:17:31.613Z,18.70
2023-04-12T13:18:34.577Z,17.90
2023-04-12T13:19:38.036Z,17.70
2023-04-12T13:20:41.469Z,17.50
2023-04-12T13:21:44.579Z,19.30
2023-04-12T13:22:48.203Z,18.70
2023-04-12T13:23:51.196Z,19.20
2023-04-12T13:24:55.406Z,18.50
2023-04-12T13:25:58.318Z,18.80
2023-04-12T13:27:01.215Z,18.90
2023-04-12T13:28:04.763Z,18.80
2023-04-12T13:29:07.729Z,18.60
2023-04-12T13:30:11.663Z,19.40
2023-04-12T13:31:14.588Z,19.70
2023-04-12T13:32:18.709Z,18.70
2023-04-12T13:33:22.334Z,18.40
2023-04-12T13:34:25.995Z,17.90
2023-04-12T13:35:29.002Z,18.40
2023-04-12T13:36:32.222Z,18.50
2023-04-12T13:37:35.140Z,17.90
2023-04-12T13:38:38.494Z,18.50
2023-04-12T13:39:41.607Z,19.00
2023-04-12T13:40:44.605Z,18.50
2023-04-12T13:41:47.684Z,20.00
2023-04-12T13:42:50.696Z,18.60
2023-04-12T13:43:53.838Z,17.50
2023-04-12T13:44:57.058Z,17.40
2023-04-12T13:46:00.400Z,18.40
2023-04-12T13:47:04.704Z,18.70
2023-04-12T13:48:07.811Z,18.60
2023-04-12T13:49:11.668Z,18.40
2023-04-12T13:50:14.647Z,18.90
2023-04-12T13:51:18.156Z,18.30
2023-04-12T13:52:21.517Z,18.40
2023-04-12T13:53:24.544Z,18.70
2023-04-12T13:54:27.778Z,19.20
2023-04-12T13:55:30.888Z,19.20
2023-04-12T13:56:33.940Z,17.40
2023-04-12T13:57:37.006Z,18.90
2023-04-12T13:58:40.133Z,17.10
2023-04-12T13:59:43.279Z,18.10
2023-04-12T14:00:46.252Z,18.50
2023-04-12T14:01:49.922Z,18.00
2023-04-12T14:02:54.128Z,17.60
2023-04-12T14:03:57.205Z,17.70
2023-04-12T14:05:00.838Z,18.20
2023-04-12T14:06:03.904Z,17.10
2023-04-12T14:07:06.955Z,16.70
2023-04-12T14:08:09.867Z,17.60
2023-04-12T14:09:30.551Z,18.20
2023-04-12T14:10:33.630Z,17.20
2023-04-12T14:11:47.369Z,17.00
2023-04-12T14:12:50.452Z,17.40
2023-04-12T14:13:54.681Z,18.90
2023-04-12T14:14:57.974Z,18.30
2023-04-12T14:16:01.012Z,18.70
2023-04-12T14:17:04.096Z,18.30
2023-04-12T14:18:07.472Z,17.90
2023-04-12T14:19:10.838Z,17.60
2023-04-12T14:20:14.566Z,19.30
2023-04-12T14:21:18.770Z,17.40
2023-04-12T14:22:21.677Z,18.40
2023-04-12T14:23:26.224Z,19.70
2023-04-12T14:24:29.231Z,18.10
2023-04-12T14:25:32.333Z,18.20
2023-04-12T14:26:35.763Z,18.20
2023-04-12T14:27:38.881Z,18.00
2023-04-12T14:28:42.160Z,18.30
2023-04-12T14:29:45.360Z,19.30
2023-04-12T14:30:51.049Z,17.60
2023-04-12T14:31:54.646Z,17.80
2023-04-12T14:32:57.699Z,18.30
2023-04-12T14:34:01.187Z,18.50
2023-04-12T14:35:05.402Z,16.90
2023-04-12T14:36:09.034Z,17.70
2023-04-12T14:37:12.500Z,16.50
2023-04-12T14:38:15.385Z,20.40
2023-04-12T14:39:18.467Z,16.00
2023-04-12T14:40:21.612Z,15.90
2023-04-12T14:41:24.633Z,16.20
2023-04-12T14:42:27.685Z,14.90
2023-04-12T14:43:30.753Z,17.50
2023-04-12T14:44:33.837Z,16.80
2023-04-12T14:45:37.761Z,15.70
2023-04-12T14:46:40.770Z,15.90
2023-04-12T14:47:43.949Z,13.80
2023-04-12T14:48:47.198Z,16.20
2023-04-12T14:49:50.391Z,15.90
2023-04-12T14:50:55.631Z,15.70
2023-04-12T14:51:59.625Z,18.70
2023-04-12T14:53:02.884Z,14.60
2023-04-12T14:54:05.810Z,15.10
2023-04-12T14:55:10.686Z,15.70
2023-04-12T14:56:22.332Z,20.40
2023-04-12T14:57:27.314Z,11.70
2023-04-12T14:58:30.771Z,11.80
2023-04-12T14:59:34.107Z,17.30
2023-04-12T15:00:38.043Z,12.30
2023-04-12T15:01:41.787Z,13.10
2023-04-12T15:02:46.357Z,15.20
2023-04-12T15:03:51.935Z,14.20
2023-04-12T15:04:55.592Z,13.90
2023-04-12T15:05:59.218Z,12.90
2023-04-12T15:07:02.160Z,14.30
2023-04-12T15:08:05.146Z,15.80
2023-04-12T15:09:10.233Z,17.40
2023-04-12T15:10:16.086Z,16.20
2023-04-12T15:11:19.317Z,15.50
2023-04-12T15:12:22.196Z,16.30
2023-04-12T15:13:33.533Z,17.70
2023-04-12T15:14:38.281Z,17.60
2023-04-12T15:15:41.853Z,16.70
2023-04-12T15:16:46.473Z,18.80
2023-04-12T15:17:49.793Z,18.50
2023-04-12T15:18:52.848Z,18.40
2023-04-12T15:19:56.203Z,19.20
2023-04-12T15:21:00.323Z,16.90
2023-04-12T15:22:03.576Z,16.50
2023-04-12T15:23:06.711Z,17.30
2023-04-12T15:24:09.645Z,19.00
2023-04-12T15:25:12.614Z,18.80
2023-04-12T15:26:15.991Z,19.30
2023-04-12T15:27:19.178Z,18.30
2023-04-12T15:28:22.170Z,20.60
2023-04-12T15:29:28.205Z,24.20
2023-04-12T15:30:32.043Z,19.10
2023-04-12T15:31:35.035Z,22.90
2023-04-12T15:32:39.175Z,18.20
2023-04-12T15:33:44.408Z,22.10
2023-04-12T15:34:47.316Z,19.80
2023-04-12T15:35:50.524Z,19.10
2023-04-12T15:36:53.624Z,21.30
2023-04-12T15:37:56.636Z,19.80
2023-04-12T15:39:00.843Z,21.30
2023-04-12T15:40:13.681Z,20.20
2023-04-12T15:41:16.643Z,22.60
2023-04-12T15:42:20.781Z,20.60
2023-04-12T15:43:25.231Z,25.40
2023-04-12T15:44:32.054Z,19.50
2023-04-12T15:45:35.128Z,24.50
2023-04-12T15:46:39.366Z,23.10
2023-04-12T15:47:42.759Z,21.70
2023-04-12T15:48:45.969Z,20.80
2023-04-12T15:49:48.896Z,23.30
2023-04-12T15:50:54.678Z,25.10
2023-04-12T15:51:58.040Z,21.00
2023-04-12T15:53:01.463Z,19.60
2023-04-12T15:54:04.728Z,16.90
2023-04-12T15:55:11.675Z,21.40
2023-04-12T15:56:17.200Z,17.20
2023-04-12T15:57:20.846Z,23.30
2023-04-12T15:58:24.661Z,15.60
2023-04-12T15:59:29.458Z,16.30
2023-04-12T16:00:33.104Z,16.10
2023-04-12T16:01:36.762Z,16.00
2023-04-12T16:02:40.700Z,18.10
2023-04-12T16:03:47.312Z,17.00
2023-04-12T16:04:51.006Z,15.40
2023-04-12T16:05:54.551Z,18.90
2023-04-12T16:07:02.189Z,19.30
2023-04-12T16:08:05.235Z,18.80
2023-04-12T16:09:08.352Z,15.30
2023-04-12T16:10:11.664Z,18.40
2023-04-12T16:11:19.599Z,14.90
2023-04-12T16:12:22.542Z,15.00
2023-04-12T16:13:25.931Z,18.00
2023-04-12T16:14:29.200Z,20.30
2023-04-12T16:15:33.636Z,17.60
2023-04-12T16:16:40.584Z,15.70
2023-04-12T16:17:45.468Z,17.70
2023-04-12T16:18:49.577Z,19.70
2023-04-12T16:19:54.620Z,18.90
2023-04-12T16:20:58.526Z,16.80
2023-04-12T16:22:02.505Z,19.00
2023-04-12T16:23:06.870Z,19.10
2023-04-12T16:24:11.915Z,20.90
2023-04-12T16:25:20.152Z,21.90
2023-04-12T16:26:24.014Z,23.20
2023-04-12T16:27:29.878Z,21.60
2023-04-12T16:28:37.639Z,20.70
2023-04-12T16:29:41.896Z,27.80
2023-04-12T16:30:46.228Z,25.20
2023-04-12T16:31:51.862Z,18.20
2023-04-12T16:32:55.582Z,23.00
2023-04-12T16:33:58.990Z,20.10
2023-04-12T16:35:02.585Z,23.10
2023-04-12T16:36:06.041Z,22.10
2023-04-12T16:37:09.094Z,25.70
2023-04-12T16:38:14.761Z,26.30
2023-04-12T16:39:19.734Z,30.30
2023-04-12T16:40:24.765Z,34.10
2023-04-12T16:41:27.962Z,23.20
2023-04-12T16:42:31.938Z,23.20
2023-04-12T16:43:35.021Z,21.40
2023-04-12T16:44:38.613Z,24.80
2023-04-12T16:45:45.713Z,18.50
2023-04-12T16:46:49.057Z,28.00
2023-04-12T16:47:52.160Z,26.20
2023-04-12T16:48:55.230Z,25.20
2023-04-12T16:49:58.470Z,26.40
2023-04-12T16:51:03.810Z,26.20
2023-04-12T16:52:07.196Z,22.20
2023-04-12T16:53:11.759Z,21.40
2023-04-12T16:54:14.959Z,21.30
2023-04-12T16:55:17.810Z,21.00
2023-04-12T16:56:21.163Z,24.30
2023-04-12T16:57:24.435Z,28.30
2023-04-12T16:58:28.858Z,25.70
2023-04-12T16:59:33.260Z,24.90
2023-04-12T17:00:37.173Z,21.30
2023-04-12T17:01:40.737Z,24.00
2023-04-12T17:02:43.850Z,24.70
2023-04-12T17:03:47.684Z,27.90
2023-04-12T17:04:51.140Z,27.60
2023-04-12T17:05:54.562Z,28.00
2023-04-12T17:06:59.081Z,25.90
2023-04-12T17:08:05.645Z,31.40
2023-04-12T17:09:09.783Z,29.40
2023-04-12T17:10:13.128Z,33.00
2023-04-12T17:11:16.441Z,31.20
2023-04-12T17:12:19.837Z,31.20
2023-04-12T17:13:22.748Z,31.80
2023-04-12T17:14:29.684Z,27.90
2023-04-12T17:15:32.887Z,27.80
2023-04-12T17:16:36.226Z,32.60
2023-04-12T17:17:39.867Z,27.90
2023-04-12T17:18:43.650Z,36.20
2023-04-12T17:19:46.766Z,26.50
2023-04-12T17:20:49.918Z,32.10
2023-04-12T17:21:53.104Z,26.40
2023-04-12T17:22:57.618Z,28.60
2023-04-12T17:24:01.282Z,29.30
2023-04-12T17:25:06.931Z,26.90
2023-04-12T17:26:10.293Z,31.10
2023-04-12T17:27:13.192Z,27.00
2023-04-12T17:28:16.572Z,26.40
2023-04-12T17:29:20.466Z,33.10
2023-04-12T17:30:24.031Z,28.40
2023-04-12T17:31:29.367Z,27.70
2023-04-12T17:32:33.887Z,28.30
2023-04-12T17:33:37.827Z,27.70
2023-04-12T17:34:42.526Z,29.30
2023-04-12T17:35:46.591Z,29.70
2023-04-12T17:36:50.327Z,28.20
2023-04-12T17:37:53.560Z,32.30
2023-04-12T17:38:58.299Z,29.00
2023-04-12T17:40:03.948Z,32.40
2023-04-12T17:41:09.247Z,26.60
2023-04-12T17:42:13.097Z,27.70
2023-04-12T17:43:16.000Z,24.10
2023-04-12T17:44:19.242Z,27.60
2023-04-12T17:45:23.669Z,26.40
2023-04-12T17:46:27.543Z,20.50
2023-04-12T17:47:32.634Z,24.40
2023-04-12T17:48:37.102Z,25.00
2023-04-12T17:49:41.178Z,24.80
2023-04-12T17:50:45.407Z,24.40
2023-04-12T17:51:48.538Z,21.40
2023-04-12T17:52:51.979Z,21.10
2023-04-12T17:53:57.003Z,20.30
2023-04-12T17:55:00.310Z,21.00
2023-04-12T17:56:04.555Z,19.20
2023-04-12T17:57:07.841Z,20.00
2023-04-12T17:58:11.100Z,19.50
2023-04-12T17:59:14.316Z,19.30
2023-04-12T18:00:19.171Z,24.00
2023-04-12T18:01:22.330Z,19.80
2023-04-12T18:02:26.270Z,20.30
2023-04-12T18:03:29.839Z,23.40
2023-04-12T18:04:33.885Z,23.60
2023-04-12T18:05:37.416Z,22.70
2023-04-12T18:06:42.013Z,23.60
2023-04-12T18:07:45.291Z,31.70
2023-04-12T18:08:48.795Z,28.80
2023-04-12T18:09:52.380Z,31.10
2023-04-12T18:10:55.480Z,34.00
2023-04-12T18:11:58.443Z,32.30
2023-04-12T18:13:01.551Z,32.80
2023-04-12T18:14:07.383Z,32.80
2023-04-12T18:15:11.500Z,32.10
2023-04-12T18:16:14.483Z,33.90
2023-04-12T18:17:17.413Z,35.90
2023-04-12T18:18:20.494Z,35.20
2023-04-12T18:19:23.888Z,35.50
2023-04-12T18:20:27.621Z,32.60
2023-04-12T18:21:32.577Z,33.80
2023-04-12T18:22:35.599Z,32.30
2023-04-12T18:23:38.663Z,32.20
2023-04-12T18:24:42.487Z,32.20
2023-04-12T18:25:45.540Z,32.00
2023-04-12T18:26:49.847Z,32.60
2023-04-12T18:27:52.835Z,32.30
2023-04-12T18:28:56.538Z,29.30
2023-04-12T18:30:01.511Z,31.00
2023-04-12T18:31:04.659Z,31.00
2023-04-12T18:32:08.252Z,29.40
2023-04-12T18:33:11.545Z,33.10
2023-04-12T18:34:14.979Z,32.10
2023-04-12T18:35:18.281Z,33.30
2023-04-12T18:36:21.332Z,31.00
2023-04-12T18:37:24.461Z,29.00
2023-04-12T18:38:33.690Z,30.50
2023-04-12T18:39:37.082Z,36.90
2023-04-12T18:40:40.119Z,62.50
2023-04-12T18:41:43.092Z,74.30
2023-04-12T18:42:46.229Z,53.10
2023-04-12T18:43:49.182Z,43.20
2023-04-12T18:44:52.506Z,40.30
2023-04-12T18:45:56.125Z,36.90
2023-04-12T18:46:59.568Z,36.90
2023-04-12T18:48:04.448Z,40.00
2023-04-12T18:49:09.198Z,27.80
2023-04-12T18:50:12.476Z,35.10
2023-04-12T18:51:15.610Z,39.30
2023-04-12T18:52:18.528Z,40.60
2023-04-12T18:53:21.990Z,35.30
2023-04-12T18:54:27.774Z,37.50
2023-04-12T18:55:31.409Z,32.00
2023-04-12T18:56:34.694Z,40.50
2023-04-12T18:57:37.793Z,38.10
2023-04-12T18:58:54.454Z,29.90
2023-04-12T18:59:58.350Z,25.20
2023-04-12T19:01:01.723Z,23.30
2023-04-12T19:02:05.091Z,23.10
2023-04-12T19:03:08.338Z,24.80
2023-04-12T19:04:12.408Z,21.80
2023-04-12T19:05:15.777Z,22.40
2023-04-12T19:06:19.476Z,21.40
2023-04-12T19:07:22.874Z,23.10
2023-04-12T19:08:26.687Z,22.70
2023-04-12T19:09:29.656Z,23.50
2023-04-12T19:10:32.590Z,23.00
2023-04-12T19:11:37.193Z,21.50
2023-04-12T19:12:40.186Z,21.50
2023-04-12T19:13:43.238Z,20.70
2023-04-12T19:14:46.841Z,22.70
2023-04-12T19:15:49.889Z,21.30